Time;durP1;ratioP1;P1;durP2;ratioP2;P2;SDS_P1;SDS_P2;PMS_P1;PMS_P2;Temp;Humidity;BMP_temperature;BMP_pressure;BME280_temperature;BME280_humidity;BME280_pressure;Samples;Min_cycle;Max_cycle;Signal;HPM_P1;HPM_P2
2022/11/06 00:00:24;;;;;;;6.20;3.90;;;;;;;2.82;100.00;96192.59;5093001;28;24436;-72
2022/11/06 00:02:51;;;;;;;6.32;4.80;;;;;;;2.78;100.00;96190.13;5103202;28;24436;-72
2022/11/06 00:08:06;;;;;;;6.50;4.18;;;;;;;3.04;100.00;96190.31;5060324;28;24456;-71
2022/11/06 00:10:33;;;;;;;40.10;5.85;;;;;;;2.90;100.00;96192.38;5106020;28;24457;-71
2022/11/06 00:13:01;;;;;;;48.00;5.15;;;;;;;2.58;100.00;96186.34;5093648;28;24437;-72
2022/11/06 00:15:27;;;;;;;75.10;5.63;;;;;;;2.43;100.00;96181.63;5096531;28;24831;-71
2022/11/06 00:17:54;;;;;;;35.85;4.43;;;;;;;2.41;100.00;96175.69;5098490;28;24446;-72
2022/11/06 00:20:21;;;;;;;24.67;3.92;;;;;;;2.53;100.00;96175.41;5094826;28;24437;-72
2022/11/06 00:22:47;;;;;;;7.13;3.72;;;;;;;2.66;100.00;96181.03;5093920;28;24467;-71
2022/11/06 00:25:14;;;;;;;15.23;4.10;;;;;;;2.70;100.00;96171.56;5100133;28;24783;-72
2022/11/06 00:27:42;;;;;;;21.38;4.03;;;;;;;2.51;100.00;96174.59;5090635;28;24438;-72
2022/11/06 00:30:11;;;;;;;5.68;3.38;;;;;;;2.72;100.00;96180.91;5095136;28;24963;-72
2022/11/06 00:32:38;;;;;;;42.10;4.75;;;;;;;2.60;100.00;96178.66;5105243;28;24438;-71
2022/11/06 00:35:06;;;;;;;24.75;4.22;;;;;;;2.65;100.00;96187.88;5102748;28;24800;-72
2022/11/06 00:37:33;;;;;;;66.68;5.00;;;;;;;2.62;100.00;96190.50;5097251;28;24445;-71
2022/11/06 00:40:00;;;;;;;28.75;4.40;;;;;;;2.59;100.00;96193.13;5092444;28;24457;-71
2022/11/06 00:42:27;;;;;;;23.92;3.58;;;;;;;2.61;100.00;96199.06;5084074;28;24852;-72
2022/11/06 00:44:53;;;;;;;6.03;3.67;;;;;;;2.49;100.00;96214.72;5103593;28;24434;-72
2022/11/06 00:47:21;;;;;;;10.63;3.35;;;;;;;2.56;100.00;96207.72;5099518;28;24438;-72
2022/11/06 00:49:48;;;;;;;25.83;3.53;;;;;;;2.71;100.00;96209.91;5083855;28;24465;-72
2022/11/06 00:52:14;;;;;;;37.15;4.65;;;;;;;2.62;100.00;96207.56;5105394;28;24433;-71
2022/11/06 00:54:41;;;;;;;33.70;3.88;;;;;;;2.48;100.00;96201.94;5107397;28;24437;-72
2022/11/06 00:57:07;;;;;;;9.07;3.42;;;;;;;2.59;100.00;96200.81;5103646;28;24989;-72
2022/11/06 00:59:34;;;;;;;28.20;3.30;;;;;;;2.42;100.00;96205.50;5105911;28;24440;-71
2022/11/06 01:02:00;;;;;;;16.83;3.33;;;;;;;2.41;100.00;96197.00;5087831;28;24531;-71
2022/11/06 01:04:28;;;;;;;3.53;2.78;;;;;;;2.52;100.00;96196.75;5101751;28;24835;-72
2022/11/06 01:06:56;;;;;;;3.67;3.38;;;;;;;2.63;100.00;96187.09;5096112;28;24438;-71
2022/11/06 01:09:24;;;;;;;51.70;5.00;;;;;;;2.69;100.00;96182.69;5102197;28;24656;-71
2022/11/06 01:11:53;;;;;;;6.13;2.90;;;;;;;2.79;100.00;96184.16;5101565;28;25058;-71
2022/11/06 01:14:22;;;;;;;24.50;3.10;;;;;;;2.82;100.00;96186.63;5101770;28;24532;-71
2022/11/06 01:16:49;;;;;;;17.90;3.70;;;;;;;2.85;100.00;96196.75;5098853;28;24799;-71
2022/11/06 01:19:17;;;;;;;45.27;4.50;;;;;;;2.52;100.00;96206.97;5101381;28;24983;-71
2022/11/06 01:21:47;;;;;;;44.67;3.90;;;;;;;2.27;100.00;96205.88;5100036;28;24430;-72
2022/11/06 01:24:16;;;;;;;39.20;3.75;;;;;;;2.18;100.00;96205.19;5093930;28;24975;-71
2022/11/06 01:26:42;;;;;;;10.45;2.95;;;;;;;2.17;100.00;96202.69;5109170;28;24434;-72
2022/11/06 01:29:11;;;;;;;24.73;2.70;;;;;;;2.35;100.00;96204.81;5105325;28;24457;-72
2022/11/06 01:31:38;;;;;;;39.88;3.25;;;;;;;2.25;100.00;96193.13;5100930;28;24438;-72
2022/11/06 01:34:05;;;;;;;55.67;4.00;;;;;;;1.91;100.00;96191.31;5101130;28;24460;-72
2022/11/06 01:36:32;;;;;;;20.83;2.58;;;;;;;1.89;100.00;96185.44;5099187;28;24968;-71
2022/11/06 01:39:04;;;;;;;2.85;2.38;;;;;;;2.14;100.00;96183.13;5105903;28;24436;-72
2022/11/06 01:41:33;;;;;;;54.22;3.53;;;;;;;2.04;100.00;96191.91;5098741;28;24796;-72
2022/11/06 01:44:01;;;;;;;44.60;3.90;;;;;;;1.83;100.00;96182.16;5101211;28;24997;-71
2022/11/06 01:46:29;;;;;;;31.10;3.03;;;;;;;1.71;100.00;96180.72;5098251;28;24441;-71
2022/11/06 01:49:02;;;;;;;65.22;3.92;;;;;;;1.79;100.00;96178.00;5093546;28;24442;-71
2022/11/06 01:51:31;;;;;;;5.57;2.75;;;;;;;1.96;100.00;96187.81;5086212;28;24545;-72
2022/11/06 01:54:02;;;;;;;44.95;3.58;;;;;;;1.83;100.00;96177.88;5094874;28;24990;-71
2022/11/06 01:56:29;;;;;;;41.25;3.63;;;;;;;1.95;100.00;96184.44;5105788;28;24436;-72
2022/11/06 01:58:56;;;;;;;7.53;2.35;;;;;;;1.90;100.00;96181.16;5102558;28;24433;-72
2022/11/06 02:01:23;;;;;;;4.18;2.83;;;;;;;2.16;100.00;96173.72;5084741;28;24437;-72
2022/11/06 02:03:59;;;;;;;9.70;2.90;;;;;;;2.24;100.00;96173.56;5099624;28;24986;-72
2022/11/06 02:06:26;;;;;;;37.37;3.50;;;;;;;2.22;100.00;96172.72;5090390;28;24497;-72
2022/11/06 02:08:53;;;;;;;47.83;3.35;;;;;;;2.09;100.00;96177.31;5091121;28;25034;-72
2022/11/06 02:11:21;;;;;;;23.30;2.60;;;;;;;2.07;100.00;96171.38;5092355;28;24454;-72
2022/11/06 02:13:53;;;;;;;16.35;2.70;;;;;;;2.25;100.00;96166.72;5094664;28;24434;-72
2022/11/06 02:16:27;;;;;;;61.60;3.65;;;;;;;2.22;100.00;96164.22;5093748;28;24430;-72
2022/11/06 02:19:12;;;;;;;14.20;2.53;;;;;;;2.29;100.00;96156.38;5091496;28;24449;-72
2022/11/06 02:22:11;;;;;;;37.38;3.00;;;;;;;2.16;100.00;96158.41;5094754;28;24524;-72
2022/11/06 02:25:04;;;;;;;68.10;4.00;;;;;;;1.78;100.00;96159.28;5081591;28;24517;-72
2022/11/06 02:27:33;;;;;;;11.40;2.30;;;;;;;2.06;100.00;96156.09;5089542;28;24828;-72
2022/11/06 02:30:05;;;;;;;3.90;2.40;;;;;;;2.21;100.00;96149.78;5087060;28;24552;-74
2022/11/06 02:32:38;;;;;;;35.47;2.70;;;;;;;2.07;100.00;96145.81;5106843;28;24525;-72
2022/11/06 02:35:16;;;;;;;36.37;3.03;;;;;;;2.09;100.00;96126.22;5096552;28;24927;-72
2022/11/06 02:37:46;;;;;;;21.20;2.22;;;;;;;1.78;100.00;96127.78;5102563;28;24541;-72
2022/11/06 02:40:15;;;;;;;32.70;2.70;;;;;;;1.99;100.00;96126.47;5094099;28;24867;-72
2022/11/06 02:42:48;;;;;;;5.22;2.40;;;;;;;2.13;100.00;96112.47;5098921;28;24457;-72
2022/11/06 02:45:18;;;;;;;60.97;3.78;;;;;;;2.14;100.00;96109.03;5103252;28;24465;-72
2022/11/06 02:47:49;;;;;;;4.03;2.37;;;;;;;2.24;100.00;96107.09;5104738;28;24423;-72
2022/11/06 02:50:20;;;;;;;45.42;3.33;;;;;;;1.88;100.00;96111.38;5087825;28;24524;-71
2022/11/06 02:52:53;;;;;;;99.22;4.90;;;;;;;1.51;100.00;96096.88;5092165;28;24438;-72
2022/11/06 02:55:24;;;;;;;66.35;3.60;;;;;;;1.39;100.00;96099.72;5098502;28;24445;-71
2022/11/06 02:57:57;;;;;;;5.53;2.03;;;;;;;1.48;100.00;96093.56;5090182;28;25007;-72
2022/11/06 03:00:24;;;;;;;74.32;4.22;;;;;;;1.38;100.00;96091.22;5094104;28;25010;-72
2022/11/06 03:02:55;;;;;;;16.20;2.15;;;;;;;1.46;100.00;96093.59;5098896;28;24521;-71
2022/11/06 03:05:27;;;;;;;62.83;3.63;;;;;;;1.34;100.00;96091.34;5089398;28;24430;-72
2022/11/06 03:08:00;;;;;;;75.47;4.13;;;;;;;1.30;100.00;96087.13;5096867;28;24441;-71
2022/11/06 03:10:33;;;;;;;43.75;3.17;;;;;;;1.19;100.00;96088.22;5101744;28;25048;-72
2022/11/06 03:13:10;;;;;;;39.22;2.92;;;;;;;1.09;100.00;96104.59;5098727;28;24441;-71
2022/11/06 03:15:42;;;;;;;43.08;3.22;;;;;;;1.15;100.00;96093.41;5091986;28;24445;-71
2022/11/06 03:18:14;;;;;;;5.82;1.92;;;;;;;1.29;100.00;96091.41;5089761;28;24422;-71
2022/11/06 03:20:49;;;;;;;2.15;1.70;;;;;;;1.47;100.00;96095.28;5106297;28;24434;-72
2022/11/06 03:23:22;;;;;;;51.15;3.30;;;;;;;1.39;100.00;96094.63;5091835;28;24423;-71
2022/11/06 03:25:54;;;;;;;32.20;3.00;;;;;;;1.58;100.00;96095.03;5098080;28;24437;-71
2022/11/06 03:28:29;;;;;;;22.95;2.30;;;;;;;1.56;100.00;96096.78;5108758;28;24429;-71
2022/11/06 03:31:02;;;;;;;28.98;2.47;;;;;;;1.54;100.00;96088.34;5103490;28;24450;-71
2022/11/06 03:33:34;;;;;;;15.07;2.25;;;;;;;1.62;100.00;96071.97;5104825;28;24430;-71
2022/11/06 03:36:05;;;;;;;35.25;3.20;;;;;;;1.53;100.00;96074.72;5102753;28;24983;-72
2022/11/06 03:38:37;;;;;;;46.35;3.03;;;;;;;1.31;100.00;96063.31;5108335;28;24791;-72
2022/11/06 03:41:09;;;;;;;41.07;2.80;;;;;;;1.23;100.00;96072.88;5103876;28;24486;-71
2022/11/06 03:43:38;;;;;;;42.78;3.10;;;;;;;1.22;100.00;96079.66;5109421;28;24432;-71
2022/11/06 03:46:11;;;;;;;6.97;2.17;;;;;;;1.25;100.00;96071.09;5092727;28;24433;-71
2022/11/06 03:48:42;;;;;;;7.18;1.83;;;;;;;1.36;100.00;96051.28;5105836;28;24464;-71
2022/11/06 03:51:14;;;;;;;8.00;2.20;;;;;;;1.24;100.00;96051.56;5094824;28;24454;-71
2022/11/06 03:53:47;;;;;;;14.15;2.05;;;;;;;1.24;100.00;96051.56;5103329;28;25815;-71
2022/11/06 03:56:18;;;;;;;10.48;2.28;;;;;;;1.17;100.00;96051.69;5104107;28;24975;-71
2022/11/06 03:58:48;;;;;;;43.47;3.08;;;;;;;1.00;100.00;96045.25;5092161;28;24995;-72
2022/11/06 04:01:18;;;;;;;18.85;2.17;;;;;;;1.07;100.00;96042.56;5094197;28;24431;-71
2022/11/06 04:03:51;;;;;;;32.47;2.55;;;;;;;1.16;100.00;96029.63;5099209;28;24449;-72
2022/11/06 04:06:24;;;;;;;11.60;1.73;;;;;;;1.36;100.00;96026.59;5088241;28;24986;-72
2022/11/06 04:14:31;;;;;;;2.37;2.10;;;;;;;1.44;100.00;96032.38;5106090;28;24593;-72
2022/11/06 04:17:02;;;;;;;4.75;1.70;;;;;;;1.67;100.00;96038.69;5103082;28;24994;-71
2022/11/06 04:19:29;;;;;;;36.47;2.78;;;;;;;1.27;100.00;96031.94;5097508;28;24442;-72
2022/11/06 04:22:10;;;;;;;31.10;2.80;;;;;;;1.17;100.00;96027.91;5103687;28;24437;-71
2022/11/06 04:27:43;;;;;;;18.40;3.05;;;;;;;1.19;100.00;96021.06;5103633;28;24496;-72
2022/11/06 04:30:13;;;;;;;36.43;2.67;;;;;;;1.06;100.00;96028.13;5096364;28;24457;-71
2022/11/06 04:32:53;;;;;;;29.15;3.15;;;;;;;0.89;100.00;96025.09;5096448;28;24433;-71
2022/11/06 04:35:28;;;;;;;26.42;2.60;;;;;;;0.94;100.00;96016.47;5090252;28;25001;-71
2022/11/06 04:38:00;;;;;;;2.63;1.90;;;;;;;1.13;100.00;96018.63;5097029;28;24438;-71
2022/11/06 04:40:36;;;;;;;3.85;2.15;;;;;;;1.23;100.00;96020.13;5094581;28;24446;-71
2022/11/06 04:43:07;;;;;;;7.03;1.98;;;;;;;1.26;100.00;96022.59;5104870;28;24440;-71
2022/11/06 04:45:40;;;;;;;33.00;2.28;;;;;;;1.01;100.00;96017.19;5103704;28;24452;-72
2022/11/06 04:48:07;;;;;;;33.87;2.90;;;;;;;0.97;100.00;96023.25;5101923;28;24441;-72
2022/11/06 04:50:38;;;;;;;65.10;3.45;;;;;;;0.63;100.00;96025.63;5087880;28;24469;-72
2022/11/06 04:53:08;;;;;;;11.07;2.13;;;;;;;0.82;100.00;96026.94;5103654;28;24437;-72
2022/11/06 04:55:44;;;;;;;18.30;2.03;;;;;;;0.80;100.00;96027.84;5092556;28;24434;-71
2022/11/06 04:58:11;;;;;;;49.25;3.13;;;;;;;0.61;100.00;96015.47;5102678;28;24438;-71
2022/11/06 05:00:42;;;;;;;7.97;1.80;;;;;;;0.67;100.00;96020.44;5107000;28;24435;-71
2022/11/06 05:03:08;;;;;;;23.33;2.50;;;;;;;0.72;100.00;96016.09;5095332;28;24434;-72
2022/11/06 05:05:35;;;;;;;25.73;2.43;;;;;;;0.60;100.00;96025.69;5097596;28;24505;-71
2022/11/06 05:08:01;;;;;;;3.85;2.05;;;;;;;0.68;100.00;96019.56;5110218;28;24434;-72
2022/11/06 05:10:28;;;;;;;22.85;2.60;;;;;;;0.64;100.00;96014.56;5100753;28;24823;-71
2022/11/06 05:12:54;;;;;;;19.48;2.15;;;;;;;0.60;100.00;96020.59;5100173;28;24998;-72
2022/11/06 05:15:21;;;;;;;10.23;2.10;;;;;;;0.60;100.00;96018.06;5084979;28;25015;-72
2022/11/06 05:17:49;;;;;;;26.95;2.40;;;;;;;0.60;100.00;96023.97;5094038;28;24978;-71
2022/11/06 05:20:15;;;;;;;22.38;2.50;;;;;;;0.44;100.00;96027.69;5108667;28;24429;-71
2022/11/06 05:22:57;;;;;;;24.50;2.70;;;;;;;0.47;100.00;96031.00;5104207;28;24434;-72
2022/11/06 05:25:23;;;;;;;4.13;2.05;;;;;;;0.76;100.00;96026.22;5107096;28;24434;-71
2022/11/06 05:27:50;;;;;;;2.38;1.95;;;;;;;0.94;100.00;96010.53;5101986;28;24436;-72
2022/11/06 05:30:16;;;;;;;2.63;2.25;;;;;;;1.10;100.00;96003.41;5107475;28;24457;-71
2022/11/06 05:32:43;;;;;;;16.38;2.33;;;;;;;0.99;100.00;96000.25;5100818;28;24436;-71
2022/11/06 05:35:11;;;;;;;2.13;1.90;;;;;;;1.13;100.00;95993.13;5109455;28;24426;-72
2022/11/06 05:37:38;;;;;;;2.33;1.98;;;;;;;1.13;100.00;96004.16;5101075;28;24804;-72
2022/11/06 05:40:05;;;;;;;2.30;2.10;;;;;;;1.25;100.00;96005.59;5095496;28;24422;-71
2022/11/06 05:42:31;;;;;;;2.10;1.90;;;;;;;1.17;100.00;96012.59;5099192;28;24427;-73
2022/11/06 05:44:58;;;;;;;9.90;2.15;;;;;;;0.91;100.00;96019.09;5096017;28;24990;-72
2022/11/06 05:47:24;;;;;;;11.90;2.55;;;;;;;0.84;100.00;96020.09;5096689;28;24434;-72
2022/11/06 05:49:51;;;;;;;21.85;2.38;;;;;;;0.80;100.00;96017.63;5094764;28;25174;-71
2022/11/06 05:52:19;;;;;;;8.43;2.00;;;;;;;0.80;100.00;96021.03;5081184;28;24461;-72
2022/11/06 05:54:45;;;;;;;9.80;2.17;;;;;;;0.88;100.00;96020.88;5099525;28;24456;-72
2022/11/06 05:57:12;;;;;;;10.20;2.25;;;;;;;0.82;100.00;96016.75;5091854;28;24808;-72
2022/11/06 05:59:38;;;;;;;12.52;2.20;;;;;;;0.88;100.00;96014.03;5096003;28;24446;-72
2022/11/06 06:02:05;;;;;;;9.07;2.17;;;;;;;0.87;100.00;96029.38;5102150;28;24436;-71
2022/11/06 06:04:32;;;;;;;22.45;4.20;;;;;;;0.67;100.00;96028.09;5091864;28;24450;-72
2022/11/06 06:06:58;;;;;;;6.45;4.40;;;;;;;0.91;100.00;96016.53;5106250;28;24444;-72
2022/11/06 06:09:26;;;;;;;17.40;2.47;;;;;;;1.00;100.00;95997.63;5105187;28;24442;-72
2022/11/06 06:11:53;;;;;;;2.80;1.80;;;;;;;1.12;100.00;95999.09;5103690;28;24453;-71
2022/11/06 06:14:20;;;;;;;60.50;3.50;;;;;;;0.84;100.00;95991.19;5097830;28;24430;-71
2022/11/06 06:16:47;;;;;;;21.20;2.55;;;;;;;0.75;100.00;95988.88;5086403;28;24800;-71
2022/11/06 06:19:14;;;;;;;20.70;2.88;;;;;;;0.97;100.00;95979.88;5090828;28;24441;-72
2022/11/06 06:21:40;;;;;;;7.90;2.33;;;;;;;1.04;100.00;95988.22;5101634;28;24433;-72
2022/11/06 06:24:07;;;;;;;40.45;5.93;;;;;;;0.84;100.00;95989.50;5101207;28;24435;-72
2022/11/06 06:26:35;;;;;;;15.57;3.17;;;;;;;0.79;100.00;95993.84;5086921;28;24454;-71
2022/11/06 06:29:02;;;;;;;36.42;7.90;;;;;;;0.64;100.00;95986.53;5089182;28;24442;-72
2022/11/06 06:31:28;;;;;;;6.53;2.88;;;;;;;0.69;100.00;95984.72;5097492;28;24453;-71
2022/11/06 06:33:55;;;;;;;13.38;2.60;;;;;;;0.76;100.00;95976.06;5099855;28;24434;-71
2022/11/06 06:36:21;;;;;;;15.63;2.30;;;;;;;0.74;100.00;95980.34;5105521;28;24430;-71
2022/11/06 06:38:48;;;;;;;35.17;2.70;;;;;;;0.60;100.00;95974.72;5092926;28;24437;-71
2022/11/06 06:41:14;;;;;;;32.45;2.90;;;;;;;0.67;100.00;95976.28;5090708;28;24433;-71
2022/11/06 06:43:42;;;;;;;13.73;2.70;;;;;;;0.77;100.00;95976.91;5097136;28;24810;-72
2022/11/06 06:46:09;;;;;;;11.48;3.03;;;;;;;0.88;100.00;95964.75;5082669;28;25015;-72
2022/11/06 06:48:36;;;;;;;35.75;2.78;;;;;;;0.79;100.00;95955.63;5094418;28;24440;-71
2022/11/06 06:51:03;;;;;;;35.10;2.67;;;;;;;0.61;100.00;95966.19;5098135;28;24847;-72
2022/11/06 06:53:30;;;;;;;37.00;2.33;;;;;;;0.52;100.00;95959.59;5103244;28;24504;-72
2022/11/06 06:55:58;;;;;;;31.80;2.63;;;;;;;0.35;100.00;95947.19;5096231;28;24434;-72
2022/11/06 06:58:24;;;;;;;6.18;1.75;;;;;;;0.53;100.00;95948.53;5099995;28;24858;-71
2022/11/06 07:00:52;;;;;;;5.68;2.10;;;;;;;0.76;100.00;95950.56;5102331;28;24452;-74
2022/11/06 07:03:19;;;;;;;6.03;1.98;;;;;;;0.92;100.00;95944.25;5094008;28;25050;-72
2022/11/06 07:05:46;;;;;;;36.65;2.85;;;;;;;0.73;100.00;95941.28;5095630;28;24441;-72
2022/11/06 07:08:12;;;;;;;64.90;3.55;;;;;;;0.60;100.00;95939.88;5091848;28;24438;-72
2022/11/06 07:10:39;;;;;;;45.20;3.30;;;;;;;0.52;100.00;95928.16;5092798;28;24461;-71
2022/11/06 07:13:06;;;;;;;29.42;2.38;;;;;;;0.77;100.00;95925.91;5095843;28;25002;-71
2022/11/06 07:15:32;;;;;;;68.88;3.63;;;;;;;0.69;100.00;95923.53;5095210;28;24430;-72
2022/11/06 07:18:02;;;;;;;65.32;11.10;;;;;;;0.45;100.00;95915.56;5101098;28;24442;-72
2022/11/06 07:20:29;;;;;;;20.80;3.28;;;;;;;0.56;100.00;95917.03;5106112;28;24430;-72
2022/11/06 07:22:57;;;;;;;47.25;2.20;;;;;;;0.62;100.00;95912.63;5103991;28;24445;-71
2022/11/06 07:25:23;;;;;;;2.28;1.90;;;;;;;0.90;100.00;95910.31;5089017;28;25011;-72
2022/11/06 07:27:50;;;;;;;28.83;2.78;;;;;;;0.91;100.00;95913.69;5087739;28;24434;-71
2022/11/06 07:30:16;;;;;;;47.37;4.23;;;;;;;0.70;100.00;95909.91;5092681;28;24482;-72
2022/11/06 07:32:43;;;;;;;102.05;5.88;;;;;;;0.57;100.00;95898.31;5097877;28;24461;-72
2022/11/06 07:35:11;;;;;;;48.95;3.85;;;;;;;0.53;100.00;95896.72;5089044;28;24496;-71
2022/11/06 07:37:37;;;;;;;4.60;3.60;;;;;;;0.68;100.00;95892.13;5087209;28;24430;-72
2022/11/06 07:40:05;;;;;;;48.23;4.70;;;;;;;0.75;100.00;95881.78;5105904;28;24440;-71
2022/11/06 07:42:31;;;;;;;76.20;7.10;;;;;;;0.60;100.00;95886.34;5088690;28;25014;-71
2022/11/06 07:44:58;;;;;;;65.97;3.97;;;;;;;0.65;100.00;95886.25;5092520;28;24429;-72
2022/11/06 07:47:26;;;;;;;32.05;4.97;;;;;;;0.68;100.00;95883.63;5106681;28;24441;-71
2022/11/06 07:49:53;;;;;;;81.18;4.60;;;;;;;0.67;100.00;95885.34;5099623;28;24862;-73
2022/11/06 07:52:20;;;;;;;39.17;4.65;;;;;;;0.61;100.00;95875.28;5090547;28;24461;-72
2022/11/06 07:54:47;;;;;;;64.88;3.78;;;;;;;0.66;100.00;95873.44;5089392;28;25008;-69
2022/11/06 07:57:14;;;;;;;44.60;3.92;;;;;;;0.77;100.00;95869.84;5099273;28;24436;-72
2022/11/06 07:59:41;;;;;;;20.23;3.53;;;;;;;0.73;100.00;95863.97;5102105;28;24824;-74
2022/11/06 08:02:10;;;;;;;11.35;3.63;;;;;;;0.72;100.00;95864.84;5084996;28;24537;-72
2022/11/06 08:04:36;;;;;;;8.25;5.30;;;;;;;0.78;100.00;95866.41;5094494;28;24431;-72
2022/11/06 08:07:03;;;;;;;14.02;3.95;;;;;;;0.92;100.00;95872.03;5099829;28;24464;-72
2022/11/06 08:09:31;;;;;;;11.98;3.50;;;;;;;0.91;100.00;95872.91;5084369;28;24446;-72
2022/11/06 08:11:58;;;;;;;3.13;2.83;;;;;;;1.04;100.00;95884.50;5095319;28;24464;-72
2022/11/06 08:14:24;;;;;;;4.63;2.70;;;;;;;1.35;100.00;95871.00;5096348;28;24441;-72
2022/11/06 08:16:51;;;;;;;3.78;2.75;;;;;;;1.77;100.00;95873.31;5105835;28;24460;-73
2022/11/06 08:19:17;;;;;;;3.70;2.47;;;;;;;2.07;100.00;95881.84;5102149;28;25042;-72
2022/11/06 08:21:44;;;;;;;3.58;2.60;;;;;;;2.45;100.00;95880.78;5086822;28;24437;-72
2022/11/06 08:24:10;;;;;;;3.33;2.10;;;;;;;2.85;100.00;95877.00;5099967;28;24824;-72
2022/11/06 08:26:38;;;;;;;9.00;2.53;;;;;;;3.12;100.00;95883.84;5100373;28;24440;-72
2022/11/06 08:29:05;;;;;;;3.65;2.30;;;;;;;3.38;100.00;95880.44;5089800;28;24444;-72
2022/11/06 08:31:31;;;;;;;3.22;2.50;;;;;;;3.68;100.00;95869.22;5090590;28;24442;-72
2022/11/06 08:33:58;;;;;;;2.60;2.30;;;;;;;4.03;100.00;95865.41;5102249;28;25054;-72
2022/11/06 08:36:24;;;;;;;3.97;2.53;;;;;;;4.28;100.00;95857.69;5095011;28;24453;-72
2022/11/06 08:38:51;;;;;;;5.93;3.50;;;;;;;4.28;100.00;95862.81;5101145;28;24441;-71
2022/11/06 08:41:17;;;;;;;3.13;2.47;;;;;;;4.67;100.00;95860.47;5090073;28;24430;-71
2022/11/06 08:43:45;;;;;;;4.32;2.88;;;;;;;4.78;100.00;95860.06;5098201;28;24438;-72
2022/11/06 08:46:12;;;;;;;7.43;3.20;;;;;;;4.92;100.00;95857.81;5094354;28;25014;-72
2022/11/06 08:48:39;;;;;;;2.90;2.58;;;;;;;5.13;100.00;95853.56;5106305;28;24444;-72
2022/11/06 08:51:06;;;;;;;2.90;2.60;;;;;;;5.11;100.00;95855.34;5090716;28;24796;-76
2022/11/06 08:53:33;;;;;;;2.88;2.47;;;;;;;4.90;100.00;95862.19;5098222;28;24891;-71
2022/11/06 08:56:02;;;;;;;3.15;2.80;;;;;;;4.85;100.00;95867.47;5099988;28;24442;-71
2022/11/06 08:58:28;;;;;;;3.88;2.80;;;;;;;4.48;100.00;95878.28;5094810;28;24431;-71
2022/11/06 09:00:56;;;;;;;4.27;2.70;;;;;;;4.19;100.00;95891.34;5091456;28;25019;-71
2022/11/06 09:03:22;;;;;;;4.05;2.90;;;;;;;3.74;100.00;95895.44;5105596;28;24438;-71
2022/11/06 09:05:49;;;;;;;5.30;3.17;;;;;;;3.70;100.00;95910.97;5101017;28;24437;-71
2022/11/06 09:08:16;;;;;;;4.45;3.15;;;;;;;3.69;100.00;95917.81;5105112;28;24440;-71
2022/11/06 09:10:43;;;;;;;10.17;3.17;;;;;;;3.80;100.00;95907.22;5099913;28;25015;-74
2022/11/06 09:13:11;;;;;;;6.07;3.10;;;;;;;4.24;100.00;95890.28;5094294;28;24456;-71
2022/11/06 09:15:38;;;;;;;4.55;2.95;;;;;;;4.44;100.00;95894.69;5096418;28;24508;-72
2022/11/06 09:18:06;;;;;;;6.22;4.05;;;;;;;4.72;100.00;95888.53;5105540;28;24444;-71
2022/11/06 09:20:33;;;;;;;9.32;3.53;;;;;;;5.24;100.00;95874.50;5099410;28;24441;-71
2022/11/06 09:23:02;;;;;;;3.77;3.37;;;;;;;5.54;100.00;95869.03;5089980;28;24462;-71
2022/11/06 09:25:28;;;;;;;4.32;3.53;;;;;;;5.89;100.00;95859.81;5090491;28;24459;-71
2022/11/06 09:27:55;;;;;;;4.95;3.40;;;;;;;6.03;100.00;95849.81;5087810;28;24434;-72
2022/11/06 09:30:23;;;;;;;5.65;3.97;;;;;;;6.29;100.00;95840.13;5086330;28;24449;-72
2022/11/06 09:32:51;;;;;;;5.45;3.88;;;;;;;6.37;100.00;95838.03;5101428;28;24457;-71
2022/11/06 09:35:21;;;;;;;5.60;4.05;;;;;;;6.55;100.00;95838.94;5096045;28;24442;-72
2022/11/06 09:37:48;;;;;;;5.70;4.82;;;;;;;6.61;100.00;95848.13;5088819;28;24808;-71
2022/11/06 09:40:21;;;;;;;6.43;4.70;;;;;;;6.64;100.00;95842.84;5101307;28;24524;-70
2022/11/06 09:42:59;;;;;;;5.50;4.50;;;;;;;6.47;100.00;95844.44;5086212;28;24864;-71
2022/11/06 09:45:29;;;;;;;5.07;4.32;;;;;;;6.74;100.00;95838.91;5097097;28;24442;-71
2022/11/06 09:48:04;;;;;;;5.43;4.63;;;;;;;6.98;100.00;95826.66;5099029;28;25062;-71
2022/11/06 09:50:35;;;;;;;5.22;4.40;;;;;;;6.51;100.00;95822.81;5091554;28;24867;-71
2022/11/06 09:53:08;;;;;;;6.85;4.40;;;;;;;6.31;100.00;95817.75;5095903;28;24500;-71
2022/11/06 09:55:39;;;;;;;6.70;4.37;;;;;;;6.83;100.00;95811.94;5089899;28;24438;-71
2022/11/06 09:58:13;;;;;;;4.47;3.90;;;;;;;6.76;100.00;95809.63;5088630;28;24801;-71
2022/11/06 10:00:40;;;;;;;7.10;3.80;;;;;;;7.06;100.00;95814.22;5099444;28;24536;-71
2022/11/06 10:03:14;;;;;;;5.18;4.32;;;;;;;7.42;100.00;95801.31;5094673;28;25331;-72
2022/11/06 10:05:44;;;;;;;4.25;3.85;;;;;;;7.61;100.00;95803.78;5091500;28;24470;-71
2022/11/06 10:08:16;;;;;;;4.63;3.90;;;;;;;7.66;100.00;95790.66;5103032;28;24430;-71
2022/11/06 10:10:50;;;;;;;4.63;3.97;;;;;;;7.61;100.00;95788.31;5094691;28;24445;-71
2022/11/06 10:13:29;;;;;;;4.32;3.92;;;;;;;7.68;100.00;95781.13;5096480;28;25010;-71
2022/11/06 10:16:04;;;;;;;4.43;4.03;;;;;;;8.08;100.00;95771.28;5086249;28;24442;-71
2022/11/06 10:18:42;;;;;;;7.70;4.18;;;;;;;8.10;100.00;95767.72;5096526;28;20746;-72
2022/11/06 10:21:15;;;;;;;4.35;3.95;;;;;;;8.03;100.00;95770.69;5087023;28;24427;-72
2022/11/06 10:23:47;;;;;;;5.80;3.27;;;;;;;7.95;100.00;95761.63;5084368;28;24434;-71
2022/11/06 10:26:17;;;;;;;5.23;3.50;;;;;;;8.09;100.00;95752.34;5086490;28;24488;-72
2022/11/06 10:29:10;;;;;;;4.03;3.28;;;;;;;8.10;100.00;95741.91;5088141;28;21311;-71
2022/11/06 10:31:47;;;;;;;4.63;3.53;;;;;;;8.25;100.00;95724.78;5094292;28;24422;-71
2022/11/06 10:34:17;;;;;;;3.13;2.60;;;;;;;8.28;100.00;95709.16;5089878;28;24442;-71
2022/11/06 10:36:50;;;;;;;3.08;2.78;;;;;;;8.33;100.00;95707.13;5105607;28;24437;-71
2022/11/06 10:39:19;;;;;;;2.93;2.50;;;;;;;7.92;100.00;95714.53;5091382;28;24453;-71
2022/11/06 10:41:51;;;;;;;3.08;2.88;;;;;;;7.97;100.00;95718.53;5095954;28;24945;-72
2022/11/06 10:44:23;;;;;;;3.10;2.50;;;;;;;7.96;100.00;95703.13;5095696;28;24437;-72
2022/11/06 10:46:54;;;;;;;3.17;2.88;;;;;;;7.93;100.00;95698.97;5101386;28;25004;-72
2022/11/06 10:49:29;;;;;;;4.25;2.97;;;;;;;8.02;100.00;95689.09;5094507;28;20809;-71
2022/11/06 10:52:24;;;;;;;3.00;2.65;;;;;;;8.07;100.00;95675.03;5097730;28;24449;-72
2022/11/06 10:55:08;;;;;;;4.40;3.13;;;;;;;8.07;100.00;95675.03;5096626;28;24442;-71
2022/11/06 10:57:41;;;;;;;4.75;3.00;;;;;;;8.07;100.00;95664.69;5096345;28;24441;-72
2022/11/06 11:00:12;;;;;;;3.70;2.50;;;;;;;7.84;100.00;95663.38;5094267;28;24914;-72
2022/11/06 11:02:40;;;;;;;2.88;2.58;;;;;;;7.77;100.00;95654.31;5100460;28;24437;-71
2022/11/06 11:05:12;;;;;;;2.75;2.25;;;;;;;7.87;100.00;95641.75;5102360;28;24437;-71
2022/11/06 11:07:42;;;;;;;2.70;2.42;;;;;;;7.87;100.00;95639.19;5101222;28;24430;-71
2022/11/06 11:10:36;;;;;;;2.50;2.30;;;;;;;7.83;100.00;95635.94;5097785;28;24805;-72
2022/11/06 11:13:04;;;;;;;3.08;2.42;;;;;;;7.70;100.00;95637.50;5088273;28;25054;-72
2022/11/06 11:15:32;;;;;;;3.20;2.50;;;;;;;7.49;100.00;95637.72;5103341;28;24440;-70
2022/11/06 11:18:15;;;;;;;4.13;3.05;;;;;;;7.63;100.00;95623.28;5101647;28;24445;-70
2022/11/06 11:20:43;;;;;;;3.57;2.90;;;;;;;7.72;100.00;95613.31;5096051;28;24445;-70
2022/11/06 11:23:18;;;;;;;3.50;2.90;;;;;;;7.50;100.00;95621.34;5098819;28;21147;-70
2022/11/06 11:25:47;;;;;;;3.83;3.53;;;;;;;7.52;100.00;95613.53;5100018;28;24440;-70
2022/11/06 11:28:24;;;;;;;3.75;3.00;;;;;;;7.63;100.00;95603.47;5103030;28;24479;-70
2022/11/06 11:30:53;;;;;;;8.02;4.72;;;;;;;7.65;100.00;95611.97;5092577;28;24440;-70
2022/11/06 11:33:22;;;;;;;4.90;3.72;;;;;;;7.73;100.00;95611.56;5108390;28;20773;-70
2022/11/06 11:35:50;;;;;;;3.55;2.95;;;;;;;7.86;100.00;95611.72;5105256;28;21388;-71
2022/11/06 11:38:20;;;;;;;3.87;3.10;;;;;;;8.05;100.00;95599.50;5105795;28;24858;-70
2022/11/06 11:40:47;;;;;;;4.25;2.97;;;;;;;8.03;100.00;95603.88;5100386;28;20763;-71
2022/11/06 11:43:22;;;;;;;6.15;5.03;;;;;;;7.86;100.00;95602.25;5093001;28;20774;-70
2022/11/06 11:46:05;;;;;;;5.15;4.65;;;;;;;7.90;100.00;95592.59;5086711;28;20703;-70
2022/11/06 11:48:43;;;;;;;3.45;2.72;;;;;;;7.90;100.00;95587.44;5099268;28;20647;-70
2022/11/06 11:51:28;;;;;;;3.93;3.13;;;;;;;7.86;100.00;95584.22;5096771;28;20721;-70